sensor_id;sensor_type;location;lat;lon;timestamp;temperature;humidity
16114;DHT22;8161;-33.910;151.156;2023-07-31T00:03:57;20.00;99.90
16114;DHT22;8161;-33.910;151.156;2023-07-31T00:06:24;20.10;99.90
16114;DHT22;8161;-33.910;151.156;2023-07-31T00:11:18;20.20;99.90
16114;DHT22;8161;-33.910;151.156;2023-07-31T00:18:40;20.70;99.90
16114;DHT22;8161;-33.910;151.156;2023-07-31T00:21:07;20.70;99.90
16114;DHT22;8161;-33.910;151.156;2023-07-31T00:23:34;20.70;99.90
16114;DHT22;8161;-33.910;151.156;2023-07-31T00:26:01;20.80;99.90
16114;DHT22;8161;-33.910;151.156;2023-07-31T00:28:29;20.80;99.90
16114;DHT22;8161;-33.910;151.156;2023-07-31T00:30:59;20.50;99.90
16114;DHT22;8161;-33.910;151.156;2023-07-31T00:35:53;20.80;99.90
16114;DHT22;8161;-33.910;151.156;2023-07-31T00:38:20;20.80;99.90
16114;DHT22;8161;-33.910;151.156;2023-07-31T00:43:14;20.90;99.90
16114;DHT22;8161;-33.910;151.156;2023-07-31T00:45:42;20.90;99.90
16114;DHT22;8161;-33.910;151.156;2023-07-31T00:48:09;21.10;99.90
16114;DHT22;8161;-33.910;151.156;2023-07-31T00:50:36;20.90;99.90
16114;DHT22;8161;-33.910;151.156;2023-07-31T00:53:04;21.20;99.90
16114;DHT22;8161;-33.910;151.156;2023-07-31T00:55:31;21.10;99.90
16114;DHT22;8161;-33.910;151.156;2023-07-31T01:02:53;21.30;99.90
16114;DHT22;8161;-33.910;151.156;2023-07-31T01:11:25;21.30;99.90
16114;DHT22;8161;-33.910;151.156;2023-07-31T01:13:48;21.50;99.90
16114;DHT22;8161;-33.910;151.156;2023-07-31T01:16:16;21.60;99.90
16114;DHT22;8161;-33.910;151.156;2023-07-31T01:24:15;21.70;99.90
16114;DHT22;8161;-33.910;151.156;2023-07-31T01:34:21;21.90;99.90
16114;DHT22;8161;-33.910;151.156;2023-07-31T01:39:16;22.00;99.90
16114;DHT22;8161;-33.910;151.156;2023-07-31T01:41:44;21.90;99.90
16114;DHT22;8161;-33.910;151.156;2023-07-31T01:44:11;21.70;99.90
16114;DHT22;8161;-33.910;151.156;2023-07-31T01:46:38;21.80;99.90
16114;DHT22;8161;-33.910;151.156;2023-07-31T01:49:06;21.70;99.90
16114;DHT22;8161;-33.910;151.156;2023-07-31T01:51:33;22.00;99.90
16114;DHT22;8161;-33.910;151.156;2023-07-31T01:54:01;22.10;99.90
16114;DHT22;8161;-33.910;151.156;2023-07-31T01:56:29;22.20;99.90
16114;DHT22;8161;-33.910;151.156;2023-07-31T01:58:56;22.20;99.90
16114;DHT22;8161;-33.910;151.156;2023-07-31T02:06:18;22.00;99.90
16114;DHT22;8161;-33.910;151.156;2023-07-31T02:08:45;22.30;99.90
16114;DHT22;8161;-33.910;151.156;2023-07-31T02:11:12;22.20;99.90
16114;DHT22;8161;-33.910;151.156;2023-07-31T02:13:39;22.10;99.90
16114;DHT22;8161;-33.910;151.156;2023-07-31T02:16:07;22.20;99.90
16114;DHT22;8161;-33.910;151.156;2023-07-31T02:18:34;22.40;99.90
16114;DHT22;8161;-33.910;151.156;2023-07-31T02:23:28;22.50;99.90
16114;DHT22;8161;-33.910;151.156;2023-07-31T02:30:52;22.50;99.90
16114;DHT22;8161;-33.910;151.156;2023-07-31T02:33:19;22.50;99.90
16114;DHT22;8161;-33.910;151.156;2023-07-31T02:35:47;22.70;99.90
16114;DHT22;8161;-33.910;151.156;2023-07-31T02:40:41;22.80;99.90
16114;DHT22;8161;-33.910;151.156;2023-07-31T02:43:09;23.00;99.90
16114;DHT22;8161;-33.910;151.156;2023-07-31T02:45:36;23.20;99.90
16114;DHT22;8161;-33.910;151.156;2023-07-31T02:48:03;23.10;99.90
16114;DHT22;8161;-33.910;151.156;2023-07-31T02:50:31;22.90;99.90
16114;DHT22;8161;-33.910;151.156;2023-07-31T02:52:58;23.00;99.90
16114;DHT22;8161;-33.910;151.156;2023-07-31T02:55:25;22.90;99.90
16114;DHT22;8161;-33.910;151.156;2023-07-31T02:57:53;22.90;99.90
16114;DHT22;8161;-33.910;151.156;2023-07-31T03:00:20;23.00;99.90
16114;DHT22;8161;-33.910;151.156;2023-07-31T03:02:47;23.10;99.90
16114;DHT22;8161;-33.910;151.156;2023-07-31T03:05:14;23.10;99.90
16114;DHT22;8161;-33.910;151.156;2023-07-31T03:10:12;23.40;99.90
16114;DHT22;8161;-33.910;151.156;2023-07-31T03:12:40;23.40;99.90
16114;DHT22;8161;-33.910;151.156;2023-07-31T03:17:35;23.50;99.90
16114;DHT22;8161;-33.910;151.156;2023-07-31T03:20:03;23.50;99.90
16114;DHT22;8161;-33.910;151.156;2023-07-31T03:22:30;23.40;99.90
16114;DHT22;8161;-33.910;151.156;2023-07-31T03:24:57;23.60;99.90
16114;DHT22;8161;-33.910;151.156;2023-07-31T03:27:25;23.70;99.90
16114;DHT22;8161;-33.910;151.156;2023-07-31T03:29:52;23.80;99.90
16114;DHT22;8161;-33.910;151.156;2023-07-31T03:34:46;23.70;99.90
16114;DHT22;8161;-33.910;151.156;2023-07-31T03:37:16;23.90;99.90
16114;DHT22;8161;-33.910;151.156;2023-07-31T03:39:43;24.00;99.90
16114;DHT22;8161;-33.910;151.156;2023-07-31T03:42:10;24.00;99.90
16114;DHT22;8161;-33.910;151.156;2023-07-31T03:44:38;24.20;99.90
16114;DHT22;8161;-33.910;151.156;2023-07-31T03:47:05;24.10;99.90
16114;DHT22;8161;-33.910;151.156;2023-07-31T03:49:33;24.10;99.90
16114;DHT22;8161;-33.910;151.156;2023-07-31T03:52:00;24.10;99.90
16114;DHT22;8161;-33.910;151.156;2023-07-31T03:54:27;23.80;99.90
16114;DHT22;8161;-33.910;151.156;2023-07-31T03:56:54;23.70;99.90
16114;DHT22;8161;-33.910;151.156;2023-07-31T03:59:22;23.80;99.90
16114;DHT22;8161;-33.910;151.156;2023-07-31T04:04:16;24.00;99.90
16114;DHT22;8161;-33.910;151.156;2023-07-31T04:06:43;24.10;99.90
16114;DHT22;8161;-33.910;151.156;2023-07-31T04:09:11;24.30;99.90
16114;DHT22;8161;-33.910;151.156;2023-07-31T04:11:38;24.40;99.90
16114;DHT22;8161;-33.910;151.156;2023-07-31T04:16:32;24.30;99.90
16114;DHT22;8161;-33.910;151.156;2023-07-31T04:21:27;24.40;99.90
16114;DHT22;8161;-33.910;151.156;2023-07-31T04:23:54;24.50;99.90
16114;DHT22;8161;-33.910;151.156;2023-07-31T04:26:22;24.70;99.90
16114;DHT22;8161;-33.910;151.156;2023-07-31T04:28:50;25.50;99.90
16114;DHT22;8161;-33.910;151.156;2023-07-31T04:31:17;24.60;99.90
16114;DHT22;8161;-33.910;151.156;2023-07-31T04:33:44;24.50;99.90
16114;DHT22;8161;-33.910;151.156;2023-07-31T04:36:11;24.90;99.90
16114;DHT22;8161;-33.910;151.156;2023-07-31T04:38:39;24.90;99.90
16114;DHT22;8161;-33.910;151.156;2023-07-31T04:43:40;25.00;99.90
16114;DHT22;8161;-33.910;151.156;2023-07-31T04:46:08;25.00;99.90
16114;DHT22;8161;-33.910;151.156;2023-07-31T04:48:35;24.90;99.90
16114;DHT22;8161;-33.910;151.156;2023-07-31T04:51:02;24.90;99.90
16114;DHT22;8161;-33.910;151.156;2023-07-31T04:55:56;24.90;99.90
16114;DHT22;8161;-33.910;151.156;2023-07-31T04:58:24;24.80;99.90
16114;DHT22;8161;-33.910;151.156;2023-07-31T05:00:51;24.90;99.90
16114;DHT22;8161;-33.910;151.156;2023-07-31T05:03:18;24.80;99.90
16114;DHT22;8161;-33.910;151.156;2023-07-31T05:05:49;24.70;99.90
16114;DHT22;8161;-33.910;151.156;2023-07-31T05:08:17;24.80;99.90
16114;DHT22;8161;-33.910;151.156;2023-07-31T05:13:11;24.80;99.90
16114;DHT22;8161;-33.910;151.156;2023-07-31T05:15:39;24.80;99.90
16114;DHT22;8161;-33.910;151.156;2023-07-31T05:18:07;24.80;99.90
16114;DHT22;8161;-33.910;151.156;2023-07-31T05:20:34;24.80;99.90
16114;DHT22;8161;-33.910;151.156;2023-07-31T05:23:02;24.80;99.90
16114;DHT22;8161;-33.910;151.156;2023-07-31T05:25:29;24.80;99.90
16114;DHT22;8161;-33.910;151.156;2023-07-31T05:27:56;24.70;99.90
16114;DHT22;8161;-33.910;151.156;2023-07-31T05:30:23;24.70;99.90
16114;DHT22;8161;-33.910;151.156;2023-07-31T05:35:18;24.80;99.90
16114;DHT22;8161;-33.910;151.156;2023-07-31T05:42:39;24.80;99.90
16114;DHT22;8161;-33.910;151.156;2023-07-31T05:45:07;24.80;99.90
16114;DHT22;8161;-33.910;151.156;2023-07-31T05:47:34;24.70;99.90
16114;DHT22;8161;-33.910;151.156;2023-07-31T05:50:02;24.70;99.90
16114;DHT22;8161;-33.910;151.156;2023-07-31T05:52:29;24.60;99.90
16114;DHT22;8161;-33.910;151.156;2023-07-31T05:57:23;24.60;99.90
16114;DHT22;8161;-33.910;151.156;2023-07-31T05:59:51;24.50;99.90
16114;DHT22;8161;-33.910;151.156;2023-07-31T06:02:19;24.90;99.90
16114;DHT22;8161;-33.910;151.156;2023-07-31T06:04:47;24.40;99.90
16114;DHT22;8161;-33.910;151.156;2023-07-31T06:07:14;24.30;99.90
16114;DHT22;8161;-33.910;151.156;2023-07-31T06:09:41;24.10;99.90
16114;DHT22;8161;-33.910;151.156;2023-07-31T06:14:36;23.90;99.90
16114;DHT22;8161;-33.910;151.156;2023-07-31T06:17:03;23.70;99.90
16114;DHT22;8161;-33.910;151.156;2023-07-31T06:19:30;23.70;99.90
16114;DHT22;8161;-33.910;151.156;2023-07-31T06:21:58;23.50;99.90
16114;DHT22;8161;-33.910;151.156;2023-07-31T06:24:25;23.40;99.90
16114;DHT22;8161;-33.910;151.156;2023-07-31T06:26:52;23.00;99.90
16114;DHT22;8161;-33.910;151.156;2023-07-31T06:29:20;22.60;99.90
16114;DHT22;8161;-33.910;151.156;2023-07-31T06:31:47;23.00;99.90
16114;DHT22;8161;-33.910;151.156;2023-07-31T06:34:14;23.10;99.90
16114;DHT22;8161;-33.910;151.156;2023-07-31T06:39:09;22.80;99.90
16114;DHT22;8161;-33.910;151.156;2023-07-31T06:41:36;22.30;99.90
16114;DHT22;8161;-33.910;151.156;2023-07-31T06:46:30;22.60;99.90
16114;DHT22;8161;-33.910;151.156;2023-07-31T06:48:57;22.60;99.90
16114;DHT22;8161;-33.910;151.156;2023-07-31T06:51:25;22.40;99.90
16114;DHT22;8161;-33.910;151.156;2023-07-31T06:53:52;22.40;99.90
16114;DHT22;8161;-33.910;151.156;2023-07-31T06:58:46;22.20;99.90
16114;DHT22;8161;-33.910;151.156;2023-07-31T07:01:16;22.20;99.90
16114;DHT22;8161;-33.910;151.156;2023-07-31T07:06:11;21.80;99.90
16114;DHT22;8161;-33.910;151.156;2023-07-31T07:08:38;21.60;99.90
16114;DHT22;8161;-33.910;151.156;2023-07-31T07:11:05;21.70;99.90
16114;DHT22;8161;-33.910;151.156;2023-07-31T07:18:29;21.60;99.90
16114;DHT22;8161;-33.910;151.156;2023-07-31T07:20:57;21.10;99.90
16114;DHT22;8161;-33.910;151.156;2023-07-31T07:23:24;21.20;99.90
16114;DHT22;8161;-33.910;151.156;2023-07-31T07:25:52;20.70;99.90
16114;DHT22;8161;-33.910;151.156;2023-07-31T07:30:51;20.80;1.00
16114;DHT22;8161;-33.910;151.156;2023-07-31T07:33:22;20.70;1.00
16114;DHT22;8161;-33.910;151.156;2023-07-31T07:35:49;20.50;1.00
16114;DHT22;8161;-33.910;151.156;2023-07-31T07:38:16;20.60;1.00
16114;DHT22;8161;-33.910;151.156;2023-07-31T07:40:45;20.30;1.00
16114;DHT22;8161;-33.910;151.156;2023-07-31T07:48:12;20.30;1.00
16114;DHT22;8161;-33.910;151.156;2023-07-31T07:50:39;20.00;1.00
16114;DHT22;8161;-33.910;151.156;2023-07-31T07:53:07;19.90;1.00
16114;DHT22;8161;-33.910;151.156;2023-07-31T07:55:35;19.90;1.00
16114;DHT22;8161;-33.910;151.156;2023-07-31T07:58:02;19.90;1.00
16114;DHT22;8161;-33.910;151.156;2023-07-31T08:00:29;19.90;1.00
16114;DHT22;8161;-33.910;151.156;2023-07-31T08:05:24;19.80;1.00
16114;DHT22;8161;-33.910;151.156;2023-07-31T08:10:19;19.30;1.00
16114;DHT22;8161;-33.910;151.156;2023-07-31T08:12:46;19.60;1.00
16114;DHT22;8161;-33.910;151.156;2023-07-31T08:17:40;19.50;1.00
16114;DHT22;8161;-33.910;151.156;2023-07-31T08:22:35;19.60;1.00
16114;DHT22;8161;-33.910;151.156;2023-07-31T08:27:30;19.40;1.00
16114;DHT22;8161;-33.910;151.156;2023-07-31T08:29:59;19.50;1.00
16114;DHT22;8161;-33.910;151.156;2023-07-31T08:32:32;19.10;1.00
16114;DHT22;8161;-33.910;151.156;2023-07-31T08:34:59;19.40;1.00
16114;DHT22;8161;-33.910;151.156;2023-07-31T08:37:27;19.50;1.00
16114;DHT22;8161;-33.910;151.156;2023-07-31T08:39:54;19.60;1.00
16114;DHT22;8161;-33.910;151.156;2023-07-31T08:42:21;18.90;1.00
16114;DHT22;8161;-33.910;151.156;2023-07-31T08:44:49;19.30;1.00
16114;DHT22;8161;-33.910;151.156;2023-07-31T08:47:17;18.70;1.00
16114;DHT22;8161;-33.910;151.156;2023-07-31T08:49:44;19.50;1.00
16114;DHT22;8161;-33.910;151.156;2023-07-31T08:52:13;18.80;1.00
16114;DHT22;8161;-33.910;151.156;2023-07-31T08:57:08;18.70;69.70
16114;DHT22;8161;-33.910;151.156;2023-07-31T08:59:37;18.60;99.90
16114;DHT22;8161;-33.910;151.156;2023-07-31T09:02:08;18.30;99.90
16114;DHT22;8161;-33.910;151.156;2023-07-31T09:04:35;18.00;99.90
16114;DHT22;8161;-33.910;151.156;2023-07-31T09:07:04;18.00;99.90
16114;DHT22;8161;-33.910;151.156;2023-07-31T09:11:59;18.30;99.90
16114;DHT22;8161;-33.910;151.156;2023-07-31T09:14:27;18.00;99.90
16114;DHT22;8161;-33.910;151.156;2023-07-31T09:16:58;18.10;99.90
16114;DHT22;8161;-33.910;151.156;2023-07-31T09:19:37;17.90;99.90
16114;DHT22;8161;-33.910;151.156;2023-07-31T09:22:08;18.20;99.90
16114;DHT22;8161;-33.910;151.156;2023-07-31T09:27:06;18.30;1.00
16114;DHT22;8161;-33.910;151.156;2023-07-31T09:29:33;17.90;1.00
16114;DHT22;8161;-33.910;151.156;2023-07-31T09:32:01;17.60;1.00
16114;DHT22;8161;-33.910;151.156;2023-07-31T09:34:37;17.70;1.00
16114;DHT22;8161;-33.910;151.156;2023-07-31T09:37:08;17.80;1.00
16114;DHT22;8161;-33.910;151.156;2023-07-31T09:39:46;17.70;1.00
16114;DHT22;8161;-33.910;151.156;2023-07-31T09:42:14;17.50;99.90
16114;DHT22;8161;-33.910;151.156;2023-07-31T09:44:50;17.90;99.90
16114;DHT22;8161;-33.910;151.156;2023-07-31T09:47:24;17.80;99.90
16114;DHT22;8161;-33.910;151.156;2023-07-31T09:49:52;18.10;99.90
16114;DHT22;8161;-33.910;151.156;2023-07-31T09:52:19;17.60;99.90
16114;DHT22;8161;-33.910;151.156;2023-07-31T09:54:46;17.80;99.90
16114;DHT22;8161;-33.910;151.156;2023-07-31T09:57:14;17.70;1.00
16114;DHT22;8161;-33.910;151.156;2023-07-31T09:59:43;17.60;99.90
16114;DHT22;8161;-33.910;151.156;2023-07-31T10:02:14;17.30;1.00
16114;DHT22;8161;-33.910;151.156;2023-07-31T10:04:43;17.90;99.90
16114;DHT22;8161;-33.910;151.156;2023-07-31T10:07:11;17.50;1.00
16114;DHT22;8161;-33.910;151.156;2023-07-31T10:09:39;17.30;1.00
16114;DHT22;8161;-33.910;151.156;2023-07-31T10:12:08;16.90;99.90
16114;DHT22;8161;-33.910;151.156;2023-07-31T10:14:38;17.20;99.90
16114;DHT22;8161;-33.910;151.156;2023-07-31T10:17:07;17.10;1.00
16114;DHT22;8161;-33.910;151.156;2023-07-31T10:19:36;16.70;99.90
16114;DHT22;8161;-33.910;151.156;2023-07-31T10:22:03;16.90;99.90
16114;DHT22;8161;-33.910;151.156;2023-07-31T10:24:31;16.80;99.90
16114;DHT22;8161;-33.910;151.156;2023-07-31T10:27:00;17.00;1.00
16114;DHT22;8161;-33.910;151.156;2023-07-31T10:29:29;16.90;1.00
16114;DHT22;8161;-33.910;151.156;2023-07-31T10:31:58;16.40;1.00
16114;DHT22;8161;-33.910;151.156;2023-07-31T10:39:40;16.20;99.90
16114;DHT22;8161;-33.910;151.156;2023-07-31T10:42:12;16.50;1.00
16114;DHT22;8161;-33.910;151.156;2023-07-31T10:44:46;16.20;1.00
16114;DHT22;8161;-33.910;151.156;2023-07-31T10:47:17;16.90;1.00
16114;DHT22;8161;-33.910;151.156;2023-07-31T10:49:47;16.20;1.00
16114;DHT22;8161;-33.910;151.156;2023-07-31T10:52:20;16.10;1.00
16114;DHT22;8161;-33.910;151.156;2023-07-31T10:55:14;16.40;1.00
16114;DHT22;8161;-33.910;151.156;2023-07-31T10:57:46;16.00;99.90
16114;DHT22;8161;-33.910;151.156;2023-07-31T11:00:27;16.60;1.00
16114;DHT22;8161;-33.910;151.156;2023-07-31T11:03:03;16.40;1.00
16114;DHT22;8161;-33.910;151.156;2023-07-31T11:06:02;16.40;1.00
16114;DHT22;8161;-33.910;151.156;2023-07-31T11:08:35;16.40;99.90
16114;DHT22;8161;-33.910;151.156;2023-07-31T11:16:00;16.90;1.00
16114;DHT22;8161;-33.910;151.156;2023-07-31T11:18:28;16.20;1.00
16114;DHT22;8161;-33.910;151.156;2023-07-31T11:20:55;16.40;1.00
16114;DHT22;8161;-33.910;151.156;2023-07-31T11:23:23;15.90;1.00
16114;DHT22;8161;-33.910;151.156;2023-07-31T11:25:50;16.40;1.00
16114;DHT22;8161;-33.910;151.156;2023-07-31T11:28:19;16.00;99.90
16114;DHT22;8161;-33.910;151.156;2023-07-31T11:33:14;16.50;73.40
16114;DHT22;8161;-33.910;151.156;2023-07-31T11:38:14;16.20;14.90
16114;DHT22;8161;-33.910;151.156;2023-07-31T11:40:49;16.20;66.20
16114;DHT22;8161;-33.910;151.156;2023-07-31T11:43:17;16.70;97.10
16114;DHT22;8161;-33.910;151.156;2023-07-31T11:45:55;16.70;99.90
16114;DHT22;8161;-33.910;151.156;2023-07-31T11:48:24;16.40;99.90
16114;DHT22;8161;-33.910;151.156;2023-07-31T11:50:54;16.30;99.90
16114;DHT22;8161;-33.910;151.156;2023-07-31T11:55:59;16.70;17.50
16114;DHT22;8161;-33.910;151.156;2023-07-31T11:58:29;16.40;83.40
16114;DHT22;8161;-33.910;151.156;2023-07-31T12:00:57;16.60;86.10
16114;DHT22;8161;-33.910;151.156;2023-07-31T12:05:53;16.70;20.10
16114;DHT22;8161;-33.910;151.156;2023-07-31T12:08:24;16.10;33.70
16114;DHT22;8161;-33.910;151.156;2023-07-31T12:10:53;16.00;96.20
16114;DHT22;8161;-33.910;151.156;2023-07-31T12:13:26;16.90;99.90
16114;DHT22;8161;-33.910;151.156;2023-07-31T12:15:59;16.40;93.20
16114;DHT22;8161;-33.910;151.156;2023-07-31T12:20:57;16.30;99.90
16114;DHT22;8161;-33.910;151.156;2023-07-31T12:23:44;15.90;99.90
16114;DHT22;8161;-33.910;151.156;2023-07-31T12:26:16;16.20;99.90
16114;DHT22;8161;-33.910;151.156;2023-07-31T12:28:47;15.90;99.90
16114;DHT22;8161;-33.910;151.156;2023-07-31T12:31:19;16.00;93.10
16114;DHT22;8161;-33.910;151.156;2023-07-31T12:33:48;15.70;99.90
16114;DHT22;8161;-33.910;151.156;2023-07-31T12:36:18;15.80;1.00
16114;DHT22;8161;-33.910;151.156;2023-07-31T12:41:13;16.00;1.00
16114;DHT22;8161;-33.910;151.156;2023-07-31T12:43:44;16.30;1.00
16114;DHT22;8161;-33.910;151.156;2023-07-31T12:46:11;16.20;1.00
16114;DHT22;8161;-33.910;151.156;2023-07-31T12:48:40;16.10;1.00
16114;DHT22;8161;-33.910;151.156;2023-07-31T12:56:02;15.70;1.00
16114;DHT22;8161;-33.910;151.156;2023-07-31T12:58:30;15.40;1.00
16114;DHT22;8161;-33.910;151.156;2023-07-31T13:00:57;15.60;59.20
16114;DHT22;8161;-33.910;151.156;2023-07-31T13:03:24;15.40;99.90
16114;DHT22;8161;-33.910;151.156;2023-07-31T13:13:13;15.70;99.90
16114;DHT22;8161;-33.910;151.156;2023-07-31T13:15:40;15.60;99.90
16114;DHT22;8161;-33.910;151.156;2023-07-31T13:18:08;15.10;1.00
16114;DHT22;8161;-33.910;151.156;2023-07-31T13:23:04;15.30;1.00
16114;DHT22;8161;-33.910;151.156;2023-07-31T13:25:32;15.30;1.00
16114;DHT22;8161;-33.910;151.156;2023-07-31T13:27:59;15.00;1.00
16114;DHT22;8161;-33.910;151.156;2023-07-31T13:30:26;15.10;1.00
16114;DHT22;8161;-33.910;151.156;2023-07-31T13:35:21;15.40;1.00
16114;DHT22;8161;-33.910;151.156;2023-07-31T13:37:48;15.30;1.00
16114;DHT22;8161;-33.910;151.156;2023-07-31T13:42:42;15.10;1.00
16114;DHT22;8161;-33.910;151.156;2023-07-31T13:45:10;15.30;99.90
16114;DHT22;8161;-33.910;151.156;2023-07-31T13:50:04;15.10;1.00
16114;DHT22;8161;-33.910;151.156;2023-07-31T13:52:31;15.60;1.00
16114;DHT22;8161;-33.910;151.156;2023-07-31T13:54:59;15.70;1.00
16114;DHT22;8161;-33.910;151.156;2023-07-31T13:57:26;15.20;1.00
16114;DHT22;8161;-33.910;151.156;2023-07-31T13:59:53;15.40;1.00
16114;DHT22;8161;-33.910;151.156;2023-07-31T14:02:21;15.60;1.00
16114;DHT22;8161;-33.910;151.156;2023-07-31T14:04:48;15.40;99.90
16114;DHT22;8161;-33.910;151.156;2023-07-31T14:07:15;15.10;99.90
16114;DHT22;8161;-33.910;151.156;2023-07-31T14:09:44;15.30;99.90
16114;DHT22;8161;-33.910;151.156;2023-07-31T14:14:43;15.20;99.90
16114;DHT22;8161;-33.910;151.156;2023-07-31T14:17:10;15.50;99.90
16114;DHT22;8161;-33.910;151.156;2023-07-31T14:19:38;15.50;99.90
16114;DHT22;8161;-33.910;151.156;2023-07-31T14:22:05;15.40;1.00
16114;DHT22;8161;-33.910;151.156;2023-07-31T14:29:30;15.40;99.90
16114;DHT22;8161;-33.910;151.156;2023-07-31T14:34:28;15.60;99.90
16114;DHT22;8161;-33.910;151.156;2023-07-31T14:36:55;15.60;99.90
16114;DHT22;8161;-33.910;151.156;2023-07-31T14:39:22;15.30;99.90
16114;DHT22;8161;-33.910;151.156;2023-07-31T14:41:50;15.30;74.70
16114;DHT22;8161;-33.910;151.156;2023-07-31T14:44:20;14.70;11.70
16114;DHT22;8161;-33.910;151.156;2023-07-31T14:46:47;15.20;1.00
16114;DHT22;8161;-33.910;151.156;2023-07-31T14:49:14;15.10;99.90
16114;DHT22;8161;-33.910;151.156;2023-07-31T14:51:41;15.00;32.80
16114;DHT22;8161;-33.910;151.156;2023-07-31T14:54:09;14.90;99.90
16114;DHT22;8161;-33.910;151.156;2023-07-31T14:56:36;15.00;99.90
16114;DHT22;8161;-33.910;151.156;2023-07-31T15:01:30;14.60;99.90
16114;DHT22;8161;-33.910;151.156;2023-07-31T15:03:58;15.20;99.90
16114;DHT22;8161;-33.910;151.156;2023-07-31T15:06:27;14.50;1.00
16114;DHT22;8161;-33.910;151.156;2023-07-31T15:08:54;14.50;1.00
16114;DHT22;8161;-33.910;151.156;2023-07-31T15:13:48;15.10;1.00
16114;DHT22;8161;-33.910;151.156;2023-07-31T15:16:15;14.90;99.90
16114;DHT22;8161;-33.910;151.156;2023-07-31T15:18:43;14.60;99.90
16114;DHT22;8161;-33.910;151.156;2023-07-31T15:23:37;14.70;1.00
16114;DHT22;8161;-33.910;151.156;2023-07-31T15:26:05;14.70;67.80
16114;DHT22;8161;-33.910;151.156;2023-07-31T15:28:32;14.20;1.00
16114;DHT22;8161;-33.910;151.156;2023-07-31T15:31:01;14.10;99.90
16114;DHT22;8161;-33.910;151.156;2023-07-31T15:33:28;14.10;99.90
16114;DHT22;8161;-33.910;151.156;2023-07-31T15:38:24;14.00;99.50
16114;DHT22;8161;-33.910;151.156;2023-07-31T15:40:51;14.50;1.00
16114;DHT22;8161;-33.910;151.156;2023-07-31T15:43:19;14.00;1.00
16114;DHT22;8161;-33.910;151.156;2023-07-31T15:45:47;14.30;1.00
16114;DHT22;8161;-33.910;151.156;2023-07-31T15:58:03;14.30;1.00
16114;DHT22;8161;-33.910;151.156;2023-07-31T16:00:30;14.40;99.90
16114;DHT22;8161;-33.910;151.156;2023-07-31T16:05:24;13.90;1.00
16114;DHT22;8161;-33.910;151.156;2023-07-31T16:12:45;14.40;1.00
16114;DHT22;8161;-33.910;151.156;2023-07-31T16:15:13;14.60;1.00
16114;DHT22;8161;-33.910;151.156;2023-07-31T16:17:41;14.80;99.90
16114;DHT22;8161;-33.910;151.156;2023-07-31T16:20:08;14.30;99.90
16114;DHT22;8161;-33.910;151.156;2023-07-31T16:25:03;14.80;1.00
16114;DHT22;8161;-33.910;151.156;2023-07-31T16:29:57;14.80;51.30
16114;DHT22;8161;-33.910;151.156;2023-07-31T16:32:29;14.20;91.30
16114;DHT22;8161;-33.910;151.156;2023-07-31T16:34:57;14.40;6.90
16114;DHT22;8161;-33.910;151.156;2023-07-31T16:37:24;14.30;99.90
16114;DHT22;8161;-33.910;151.156;2023-07-31T16:39:51;14.50;48.20
16114;DHT22;8161;-33.910;151.156;2023-07-31T16:42:19;14.10;1.00
16114;DHT22;8161;-33.910;151.156;2023-07-31T16:47:13;14.60;1.00
16114;DHT22;8161;-33.910;151.156;2023-07-31T16:49:40;14.70;1.00
16114;DHT22;8161;-33.910;151.156;2023-07-31T16:54:35;14.40;1.00
16114;DHT22;8161;-33.910;151.156;2023-07-31T17:01:57;14.60;1.00
16114;DHT22;8161;-33.910;151.156;2023-07-31T17:04:24;14.30;1.00
16114;DHT22;8161;-33.910;151.156;2023-07-31T17:06:51;14.60;1.00
16114;DHT22;8161;-33.910;151.156;2023-07-31T17:09:18;14.40;17.00
16114;DHT22;8161;-33.910;151.156;2023-07-31T17:11:46;14.60;99.90
16114;DHT22;8161;-33.910;151.156;2023-07-31T17:14:13;13.90;99.90
16114;DHT22;8161;-33.910;151.156;2023-07-31T17:16:40;14.30;99.90
16114;DHT22;8161;-33.910;151.156;2023-07-31T17:19:07;14.30;99.90
16114;DHT22;8161;-33.910;151.156;2023-07-31T17:21:34;14.40;1.00
16114;DHT22;8161;-33.910;151.156;2023-07-31T17:24:02;13.80;99.90
16114;DHT22;8161;-33.910;151.156;2023-07-31T17:26:30;14.60;1.00
16114;DHT22;8161;-33.910;151.156;2023-07-31T17:28:57;14.20;1.00
16114;DHT22;8161;-33.910;151.156;2023-07-31T17:31:26;14.10;99.90
16114;DHT22;8161;-33.910;151.156;2023-07-31T17:33:53;13.70;43.10
16114;DHT22;8161;-33.910;151.156;2023-07-31T17:36:21;14.20;99.90
16114;DHT22;8161;-33.910;151.156;2023-07-31T17:38:48;13.70;1.00
16114;DHT22;8161;-33.910;151.156;2023-07-31T17:41:15;13.80;99.90
16114;DHT22;8161;-33.910;151.156;2023-07-31T17:43:42;14.00;99.90
16114;DHT22;8161;-33.910;151.156;2023-07-31T17:46:12;13.80;1.00
16114;DHT22;8161;-33.910;151.156;2023-07-31T17:48:40;13.60;99.90
16114;DHT22;8161;-33.910;151.156;2023-07-31T17:53:36;14.20;99.90
16114;DHT22;8161;-33.910;151.156;2023-07-31T17:58:31;13.90;1.00
16114;DHT22;8161;-33.910;151.156;2023-07-31T18:05:53;13.90;1.00
16114;DHT22;8161;-33.910;151.156;2023-07-31T18:08:20;13.60;1.00
16114;DHT22;8161;-33.910;151.156;2023-07-31T18:10:47;13.80;99.90
16114;DHT22;8161;-33.910;151.156;2023-07-31T18:13:15;13.70;99.90
16114;DHT22;8161;-33.910;151.156;2023-07-31T18:18:14;13.60;1.00
16114;DHT22;8161;-33.910;151.156;2023-07-31T18:20:41;13.20;1.00
16114;DHT22;8161;-33.910;151.156;2023-07-31T18:23:08;13.10;99.90
16114;DHT22;8161;-33.910;151.156;2023-07-31T18:30:30;13.20;1.00
16114;DHT22;8161;-33.910;151.156;2023-07-31T18:32:57;13.60;1.00
16114;DHT22;8161;-33.910;151.156;2023-07-31T18:35:25;12.80;89.00
16114;DHT22;8161;-33.910;151.156;2023-07-31T18:37:52;13.60;1.00
16114;DHT22;8161;-33.910;151.156;2023-07-31T18:40:19;13.30;1.00
16114;DHT22;8161;-33.910;151.156;2023-07-31T18:42:47;13.10;1.00
16114;DHT22;8161;-33.910;151.156;2023-07-31T18:45:14;13.10;1.00
16114;DHT22;8161;-33.910;151.156;2023-07-31T18:47:41;13.00;1.00
16114;DHT22;8161;-33.910;151.156;2023-07-31T18:50:08;13.30;99.90
16114;DHT22;8161;-33.910;151.156;2023-07-31T18:52:36;13.20;99.90
16114;DHT22;8161;-33.910;151.156;2023-07-31T18:55:03;13.10;1.00
16114;DHT22;8161;-33.910;151.156;2023-07-31T18:57:31;12.90;96.90
16114;DHT22;8161;-33.910;151.156;2023-07-31T18:59:58;12.80;1.00
16114;DHT22;8161;-33.910;151.156;2023-07-31T19:02:25;12.70;99.90
16114;DHT22;8161;-33.910;151.156;2023-07-31T19:04:53;13.30;1.00
16114;DHT22;8161;-33.910;151.156;2023-07-31T19:07:20;13.20;1.00
16114;DHT22;8161;-33.910;151.156;2023-07-31T19:09:47;12.70;1.00
16114;DHT22;8161;-33.910;151.156;2023-07-31T19:12:14;13.10;1.00
16114;DHT22;8161;-33.910;151.156;2023-07-31T19:14:42;12.90;1.00
16114;DHT22;8161;-33.910;151.156;2023-07-31T19:17:09;12.80;99.90
16114;DHT22;8161;-33.910;151.156;2023-07-31T19:19:36;12.80;99.90
16114;DHT22;8161;-33.910;151.156;2023-07-31T19:24:31;13.10;99.90